Time;durP1;ratioP1;P1;durP2;ratioP2;P2;SDS_P1;SDS_P2;PMS_P1;PMS_P2;Temp;Humidity;BMP_temperature;BMP_pressure;BME280_temperature;BME280_humidity;BME280_pressure;Samples;Min_cycle;Max_cycle;Signal;HPM_P1;HPM_P2
2023/09/08 00:00:53;;;;;;;7.20;5.67;;;23.50;87.10;;;;;;6081482;23;20416;-80
2023/09/08 00:04:36;;;;;;;;;;;;;;;;;;;;;
2023/09/08 00:08:03;;;;;;;6.20;5.70;;;23.60;87.80;;;;;;6010959;23;20411;-82
2023/09/08 00:11:30;;;;;;;5.57;5.07;;;23.40;88.30;;;;;;6017886;23;20528;-83
2023/09/08 00:14:38;;;;;;;6.03;5.50;;;23.40;88.80;;;;;;6072852;23;20504;-81
2023/09/08 00:18:03;;;;;;;5.83;5.30;;;23.20;88.90;;;;;;6091372;23;20392;-82
2023/09/08 00:22:05;;;;;;;5.87;5.30;;;23.10;89.00;;;;;;6058003;23;20479;-83
2023/09/08 00:29:17;;;;;;;6.30;5.80;;;23.00;89.70;;;;;;6076184;23;20427;-82
2023/09/08 00:36:33;;;;;;;5.50;5.00;;;22.70;90.30;;;;;;6069823;23;20421;-84
2023/09/08 00:40:22;;;;;;;5.70;5.20;;;22.70;90.30;;;;;;6062111;23;20457;-83
2023/09/08 00:47:46;;;;;;;5.20;4.70;;;22.50;91.20;;;;;;6213735;23;20499;-82
2023/09/08 00:51:25;;;;;;;;;;;;;;;;;;;;;
2023/09/08 00:58:56;;;;;;;;;;;;;;;;;;;;;
2023/09/08 01:06:32;;;;;;;;;;;;;;;;;;;;;
2023/09/08 01:24:47;;;;;;;6.10;5.60;;;22.70;91.90;;;;;;6066917;23;20391;-83
2023/09/08 01:28:35;;;;;;;;;;;;;;;;;;;;;
2023/09/08 01:35:42;;;;;;;7.00;5.50;;;22.60;93.10;;;;;;6118607;23;20423;-82
2023/09/08 01:39:06;;;;;;;5.63;5.20;;;22.60;93.00;;;;;;6064921;23;20428;-81
2023/09/08 01:46:56;;;;;;;8.53;6.00;;;22.20;93.20;;;;;;6035440;23;20513;-83
2023/09/08 01:54:26;;;;;;;6.30;5.70;;;22.10;93.60;;;;;;5983987;23;20434;-83
2023/09/08 01:57:33;;;;;;;6.03;5.43;;;22.20;93.50;;;;;;6078690;23;20485;-81
2023/09/08 02:04:38;;;;;;;6.00;5.50;;;22.10;93.70;;;;;;6166393;23;20472;-82
2023/09/08 02:07:52;;;;;;;5.83;5.17;;;22.00;93.90;;;;;;6156224;23;20413;-80
2023/09/08 02:15:10;;;;;;;;;;;;;;;;;;;;;
2023/09/08 02:18:13;;;;;;;6.23;5.63;;;21.60;95.30;;;;;;6246938;22;20485;-82
2023/09/08 02:21:20;;;;;;;6.40;5.80;;;21.70;95.10;;;;;;6208147;23;20416;-83
2023/09/08 02:24:33;;;;;;;6.13;5.30;;;21.70;95.10;;;;;;6191609;23;20418;-82
2023/09/08 02:27:51;;;;;;;5.90;5.40;;;21.60;95.20;;;;;;6214956;23;20798;-81
2023/09/08 02:30:51;;;;;;;6.37;5.77;;;21.60;95.20;;;;;;6215703;23;20442;-83
2023/09/08 02:34:05;;;;;;;5.87;5.27;;;21.50;95.60;;;;;;6212956;23;20414;-83
2023/09/08 02:37:21;;;;;;;8.20;5.17;;;21.40;96.00;;;;;;6216253;23;20482;-83
2023/09/08 02:40:22;;;;;;;;;;;;;;;;;;;;;
2023/09/08 02:43:37;;;;;;;5.60;5.13;;;21.30;95.70;;;;;;6243916;23;20420;-82
2023/09/08 02:46:48;;;;;;;5.40;4.90;;;21.30;95.60;;;;;;6204510;23;20435;-83
2023/09/08 02:49:32;;;;;;;6.07;5.43;;;21.30;95.60;;;;;;6215560;23;20867;-82
2023/09/08 02:52:02;;;;;;;6.20;5.60;;;21.30;95.50;;;;;;6216337;23;20483;-83
2023/09/08 02:54:33;;;;;;;6.73;6.03;;;21.30;95.60;;;;;;6241606;22;20424;-82
2023/09/08 02:57:03;;;;;;;6.47;5.97;;;21.20;95.90;;;;;;6242736;23;20437;-84
2023/09/08 02:59:36;;;;;;;6.97;4.70;;;21.20;96.10;;;;;;6216499;23;20491;-84
2023/09/08 03:02:10;;;;;;;5.40;5.00;;;21.20;96.60;;;;;;6215129;23;20427;-84
2023/09/08 03:04:40;;;;;;;5.80;5.30;;;21.10;96.40;;;;;;6215290;23;20487;-82
2023/09/08 03:07:10;;;;;;;5.53;5.13;;;21.20;96.20;;;;;;6217311;23;20478;-81
2023/09/08 03:09:43;;;;;;;8.53;5.17;;;21.10;96.30;;;;;;6249978;22;20431;-83
2023/09/08 03:12:18;;;;;;;5.43;4.93;;;20.90;96.60;;;;;;6248964;22;20439;-81
2023/09/08 03:14:52;;;;;;;5.87;5.30;;;20.70;97.00;;;;;;6215153;23;20476;-81
2023/09/08 03:17:25;;;;;;;6.73;6.07;;;20.60;97.50;;;;;;6236800;22;20420;-81
2023/09/08 03:20:14;;;;;;;5.97;5.47;;;20.50;97.40;;;;;;6235801;23;20448;-81
2023/09/08 03:22:53;;;;;;;6.50;5.90;;;20.50;97.60;;;;;;6234312;23;20434;-82
2023/09/08 03:25:22;;;;;;;6.30;5.80;;;20.60;97.60;;;;;;6236683;23;20415;-80
2023/09/08 03:27:56;;;;;;;6.40;5.80;;;20.70;97.40;;;;;;6212353;23;20434;-83
2023/09/08 03:30:35;;;;;;;6.50;5.80;;;20.80;97.40;;;;;;6239749;22;20531;-83
2023/09/08 03:33:05;;;;;;;6.00;5.40;;;20.70;97.40;;;;;;6212037;23;20458;-84
2023/09/08 03:35:40;;;;;;;6.67;5.47;;;20.80;97.30;;;;;;6213356;23;20783;-84
2023/09/08 03:41:11;;;;;;;5.77;5.27;;;20.70;97.30;;;;;;6240497;23;20436;-83
2023/09/08 03:43:40;;;;;;;7.83;6.60;;;20.70;97.10;;;;;;6237068;23;20415;-83
2023/09/08 03:46:25;;;;;;;6.27;5.67;;;20.60;97.10;;;;;;6215242;23;20419;-82
2023/09/08 03:49:01;;;;;;;6.10;5.50;;;20.40;97.40;;;;;;6200827;23;20431;-81
2023/09/08 03:51:40;;;;;;;6.17;5.57;;;20.40;97.70;;;;;;6212832;23;20781;-81
2023/09/08 03:54:24;;;;;;;6.77;5.50;;;20.40;97.60;;;;;;6214689;23;20479;-82
2023/09/08 03:57:01;;;;;;;6.97;6.10;;;20.60;98.00;;;;;;6239497;23;20414;-81
2023/09/08 03:59:50;;;;;;;9.57;7.40;;;20.30;98.10;;;;;;6240792;23;21211;-85
2023/09/08 04:02:21;;;;;;;7.07;6.37;;;20.30;98.00;;;;;;6214452;23;20443;-83
2023/09/08 04:04:59;;;;;;;5.40;4.90;;;20.30;97.90;;;;;;6214637;23;20451;-83
2023/09/08 04:07:44;;;;;;;5.90;5.40;;;20.30;97.80;;;;;;6239388;23;20530;-82
2023/09/08 04:10:16;;;;;;;5.83;5.10;;;20.30;97.80;;;;;;6214750;23;20469;-82
2023/09/08 04:12:51;;;;;;;6.80;6.07;;;20.20;97.80;;;;;;6215653;23;20438;-83
2023/09/08 04:15:41;;;;;;;10.50;5.80;;;20.10;98.20;;;;;;6204061;23;20400;-82
2023/09/08 04:18:15;;;;;;;8.03;6.87;;;20.00;98.40;;;;;;6214843;23;20416;-83
2023/09/08 04:21:12;;;;;;;10.83;7.37;;;20.00;98.60;;;;;;6218816;23;20438;-82
2023/09/08 04:23:47;;;;;;;10.70;6.90;;;20.00;98.70;;;;;;6218076;23;20396;-82
2023/09/08 04:26:21;;;;;;;7.90;6.93;;;19.80;98.50;;;;;;6242112;22;20434;-83
2023/09/08 04:28:50;;;;;;;9.80;6.97;;;19.80;98.70;;;;;;6217368;23;20439;-84
2023/09/08 04:31:21;;;;;;;8.47;6.77;;;20.00;98.70;;;;;;6217511;23;20428;-83
2023/09/08 04:34:09;;;;;;;8.07;6.43;;;19.90;98.70;;;;;;6220066;23;20403;-80
2023/09/08 04:39:50;;;;;;;8.57;6.00;;;20.50;98.30;;;;;;6240853;23;20420;-84
2023/09/08 04:42:26;;;;;;;6.63;5.97;;;20.10;98.10;;;;;;6249766;23;20436;-82
2023/09/08 04:44:55;;;;;;;8.63;6.53;;;20.00;98.10;;;;;;6229419;23;20423;-82
2023/09/08 04:47:31;;;;;;;6.80;6.20;;;20.00;98.40;;;;;;6256279;22;20423;-83
2023/09/08 04:50:06;;;;;;;6.30;5.70;;;19.90;98.50;;;;;;6256634;22;20445;-82
2023/09/08 04:52:44;;;;;;;6.20;5.60;;;20.00;98.60;;;;;;6227588;23;20937;-83
2023/09/08 04:55:25;;;;;;;7.77;6.83;;;20.10;98.10;;;;;;6247218;23;20412;-82
2023/09/08 04:57:56;;;;;;;6.87;5.90;;;20.10;98.00;;;;;;6218462;23;20500;-82
2023/09/08 05:00:37;;;;;;;7.70;5.70;;;20.20;97.90;;;;;;6259973;22;20434;-83
2023/09/08 05:03:14;;;;;;;8.47;5.67;;;20.10;97.80;;;;;;6235591;23;20435;-82
2023/09/08 05:05:53;;;;;;;6.50;5.43;;;20.00;97.90;;;;;;6237008;23;20385;-82
2023/09/08 05:08:45;;;;;;;7.27;6.07;;;20.10;98.00;;;;;;6261535;22;20419;-82
2023/09/08 05:12:17;;;;;;;;;;;;;;;;;;;;;
2023/09/08 05:23:55;;;;;;;9.80;7.10;;;20.00;98.20;;;;;;6237132;22;20514;-82
2023/09/08 05:26:41;;;;;;;12.90;9.43;;;20.30;98.00;;;;;;6232958;23;20525;-83
2023/09/08 05:29:12;;;;;;;11.77;7.03;;;20.20;97.90;;;;;;6216891;23;20408;-82
2023/09/08 05:31:46;;;;;;;9.83;7.83;;;20.20;97.90;;;;;;6228712;23;20752;-83
2023/09/08 05:34:19;;;;;;;8.20;7.13;;;20.20;97.70;;;;;;6188761;23;21507;-83
2023/09/08 05:36:47;;;;;;;8.10;7.07;;;20.20;97.60;;;;;;6186501;23;20416;-85
2023/09/08 05:44:01;;;;;;;9.40;7.10;;;20.30;97.30;;;;;;6214174;23;20395;-83
2023/09/08 05:46:54;;;;;;;8.77;6.67;;;20.30;97.40;;;;;;6090636;23;20531;-82
2023/09/08 05:50:13;;;;;;;8.83;6.83;;;20.30;97.60;;;;;;6137834;23;20499;-84
2023/09/08 05:54:14;;;;;;;;;;;;;;;;;;;;;
2023/09/08 06:05:05;;;;;;;6.10;5.60;;;20.30;97.00;;;;;;5917373;24;20424;-82
2023/09/08 06:07:49;;;;;;;9.87;5.70;;;20.50;96.20;;;;;;5928039;24;20724;-81
2023/09/08 06:10:39;;;;;;;5.80;5.30;;;21.00;96.80;;;;;;5960837;23;20446;-82
2023/09/08 06:13:23;;;;;;;6.13;5.50;;;24.10;92.10;;;;;;6099464;23;20419;-83
2023/09/08 06:16:14;;;;;;;5.60;5.00;;;26.50;81.10;;;;;;6094575;23;20416;-81
2023/09/08 06:18:52;;;;;;;5.07;4.67;;;27.80;73.10;;;;;;6098057;23;20574;-81
2023/09/08 06:21:22;;;;;;;5.10;4.60;;;28.90;67.90;;;;;;6103839;23;20470;-83
2023/09/08 06:24:34;;;;;;;5.70;5.20;;;29.70;62.90;;;;;;6162150;23;20401;-84
2023/09/08 06:27:19;;;;;;;6.10;4.60;;;29.90;60.20;;;;;;6182613;23;20878;-83
2023/09/08 06:29:51;;;;;;;4.20;3.80;;;30.00;59.40;;;;;;6183145;23;20500;-84
2023/09/08 06:33:11;;;;;;;7.70;4.90;;;30.90;57.90;;;;;;6183907;23;20547;-84
2023/09/08 06:36:13;;;;;;;;;;;;;;;;;;;;;
2023/09/08 06:39:38;;;;;;;5.27;4.50;;;31.40;55.20;;;;;;6103083;23;20400;-85
2023/09/08 06:46:25;;;;;;;7.70;4.63;;;31.80;53.30;;;;;;6194373;23;20396;-83
2023/09/08 06:49:08;;;;;;;5.33;4.83;;;32.30;52.70;;;;;;6193951;23;20452;-87
2023/09/08 06:52:02;;;;;;;5.70;5.13;;;32.50;51.40;;;;;;6194469;23;20449;-82
2023/09/08 06:55:31;;;;;;;5.10;4.70;;;32.50;51.70;;;;;;6085399;23;20434;-84
2023/09/08 06:58:14;;;;;;;4.87;4.43;;;32.10;50.60;;;;;;6073003;23;20412;-81
2023/09/08 07:01:04;;;;;;;5.80;4.70;;;29.00;54.80;;;;;;6102498;23;21560;-80
2023/09/08 07:03:52;;;;;;;;;;;;;;;;;;;;;
2023/09/08 07:06:50;;;;;;;4.87;4.43;;;26.50;65.70;;;;;;6094471;23;20420;-83
2023/09/08 07:10:23;;;;;;;5.27;4.70;;;28.70;60.00;;;;;;6088987;23;20561;-83
2023/09/08 07:13:24;;;;;;;5.43;4.50;;;30.80;55.70;;;;;;6076984;23;20723;-84
2023/09/08 07:16:10;;;;;;;4.30;4.00;;;32.00;52.60;;;;;;6097678;23;20420;-83
2023/09/08 07:18:53;;;;;;;4.00;3.70;;;32.60;50.90;;;;;;6088047;23;21053;-82
2023/09/08 07:21:20;;;;;;;4.97;4.57;;;32.10;51.80;;;;;;6099309;23;20452;-84
2023/09/08 07:24:45;;;;;;;4.60;4.13;;;33.10;50.10;;;;;;6084734;23;20424;-83
2023/09/08 07:27:58;;;;;;;;;;;;;;;;;;;;;
2023/09/08 07:31:06;;;;;;;3.70;3.40;;;35.00;46.60;;;;;;6206499;23;20448;-83
2023/09/08 07:34:37;;;;;;;4.43;3.97;;;36.10;44.90;;;;;;6201544;23;20400;-83
2023/09/08 07:37:20;;;;;;;5.27;4.50;;;35.70;44.40;;;;;;6220409;23;20405;-82
2023/09/08 07:40:20;;;;;;;4.13;3.77;;;35.50;44.70;;;;;;6201841;23;20412;-82
2023/09/08 07:43:42;;;;;;;6.00;4.10;;;35.50;44.70;;;;;;6222476;23;20420;-80
2023/09/08 07:46:50;;;;;;;4.33;4.03;;;35.80;43.80;;;;;;6152217;23;20452;-84
2023/09/08 07:49:39;;;;;;;4.10;3.70;;;35.60;43.80;;;;;;6156807;23;20467;-82
2023/09/08 07:52:18;;;;;;;4.30;4.00;;;35.30;44.10;;;;;;6188502;23;20469;-82
2023/09/08 07:55:18;;;;;;;4.40;4.00;;;34.70;44.60;;;;;;6196594;23;20397;-83
2023/09/08 07:58:25;;;;;;;4.60;4.20;;;34.70;45.20;;;;;;6202030;23;20413;-83
2023/09/08 08:04:52;;;;;;;4.47;4.07;;;36.30;42.60;;;;;;6229994;23;20393;-83
2023/09/08 08:12:00;;;;;;;4.70;4.20;;;35.70;42.60;;;;;;6211666;23;20503;-82
2023/09/08 08:15:00;;;;;;;4.70;4.30;;;35.80;42.70;;;;;;6219084;23;20408;-84
2023/09/08 08:18:06;;;;;;;4.90;4.50;;;35.70;43.00;;;;;;6197538;23;21213;-85
2023/09/08 08:21:04;;;;;;;4.43;4.03;;;35.70;43.50;;;;;;6201051;23;20409;-83
2023/09/08 08:24:02;;;;;;;4.50;4.10;;;35.80;42.80;;;;;;6224081;23;20416;-83
2023/09/08 08:26:53;;;;;;;4.30;3.90;;;36.10;42.10;;;;;;6202750;23;20419;-82
2023/09/08 08:29:50;;;;;;;8.00;4.20;;;35.40;42.90;;;;;;6161953;23;20397;-83
2023/09/08 08:32:45;;;;;;;4.00;3.70;;;35.20;43.10;;;;;;6195102;23;20465;-84
2023/09/08 08:36:11;;;;;;;;;;;;;;;;;;;;;
2023/09/08 08:38:52;;;;;;;4.50;3.97;;;35.50;43.10;;;;;;6130246;23;20525;-84
2023/09/08 08:41:39;;;;;;;4.57;4.17;;;35.80;42.00;;;;;;6107762;23;20442;-83
2023/09/08 08:44:36;;;;;;;5.13;4.73;;;35.20;42.70;;;;;;6076002;23;20462;-82
2023/09/08 08:48:14;;;;;;;4.20;3.90;;;35.00;43.10;;;;;;6112329;23;20411;-82
2023/09/08 08:51:35;;;;;;;4.80;4.40;;;35.20;43.10;;;;;;5967913;24;20553;-85
2023/09/08 08:54:45;;;;;;;;;;;;;;;;;;;;;
2023/09/08 08:58:24;;;;;;;5.93;4.80;;;30.50;49.90;;;;;;5988762;24;20409;-83
2023/09/08 09:01:47;;;;;;;;;;;;;;;;;;;;;
2023/09/08 09:05:32;;;;;;;4.73;4.40;;;28.20;56.10;;;;;;5893200;24;20411;-83
2023/09/08 09:12:23;;;;;;;4.10;3.80;;;31.30;51.70;;;;;;6112523;23;20467;-82
2023/09/08 09:16:17;;;;;;;;;;;;;;;;;;;;;
2023/09/08 09:19:53;;;;;;;4.50;4.20;;;34.00;46.20;;;;;;6093621;23;20472;-82
2023/09/08 09:23:34;;;;;;;4.83;4.43;;;33.60;46.50;;;;;;5986568;23;20526;-83
2023/09/08 09:27:14;;;;;;;;;;;;;;;;;;;;;
2023/09/08 09:30:33;;;;;;;5.10;4.27;;;35.20;44.10;;;;;;6074579;23;20377;-81
2023/09/08 09:49:33;;;;;;;5.27;4.40;;;36.50;41.90;;;;;;6293979;22;20505;-83
2023/09/08 10:04:55;;;;;;;;;;;;;;;;;;;;;
2023/09/08 10:12:31;;;;;;;;;;;;;;;;;;;;;
2023/09/08 10:16:16;;;;;;;4.47;4.07;;;35.50;43.10;;;;;;6140975;23;20532;-84
2023/09/08 10:27:39;;;;;;;;;;;;;;;;;;;;;
2023/09/08 10:34:33;;;;;;;4.87;4.13;;;35.40;42.90;;;;;;6265539;22;20466;-83
2023/09/08 10:38:12;;;;;;;5.10;4.47;;;35.50;42.60;;;;;;6127136;23;20376;-83
2023/09/08 10:41:23;;;;;;;6.17;4.60;;;35.30;42.70;;;;;;6099244;23;20408;-84
2023/09/08 10:44:47;;;;;;;4.80;4.40;;;35.90;42.80;;;;;;6123384;23;20419;-84
2023/09/08 10:48:19;;;;;;;;;;;;;;;;;;;;;
2023/09/08 10:52:24;;;;;;;;;;;;;;;;;;;;;
2023/09/08 10:59:56;;;;;;;3.90;3.60;;;36.40;41.00;;;;;;5730350;25;20403;-83
2023/09/08 11:03:07;;;;;;;;;;;;;;;;;;;;;
2023/09/08 11:18:43;;;;;;;4.20;3.90;;;36.30;41.40;;;;;;5960133;23;20426;-85
2023/09/08 11:30:01;;;;;;;;;;;;;;;;;;;;;
2023/09/08 12:04:00;;;;;;;4.67;4.37;;;36.50;40.40;;;;;;6166627;23;20422;-84
2023/09/08 12:07:56;;;;;;;;;;;;;;;;;;;;;
2023/09/08 12:14:55;;;;;;;4.67;4.27;;;36.40;41.30;;;;;;6016534;23;20447;-84
2023/09/08 12:28:28;;;;;;;4.37;4.07;;;36.20;40.50;;;;;;5976947;23;20534;-84
2023/09/08 12:32:26;;;;;;;;;;;;;;;;;;;;;
2023/09/08 12:35:40;;;;;;;4.10;3.90;;;35.90;40.50;;;;;;5984866;23;20451;-84
2023/09/08 12:42:39;;;;;;;4.30;3.90;;;36.50;40.40;;;;;;6040210;23;20449;-83
2023/09/08 12:46:30;;;;;;;;;;;;;;;;;;;;;
2023/09/08 12:53:35;;;;;;;4.67;3.83;;;36.70;40.20;;;;;;5772969;24;20561;-83
2023/09/08 12:56:33;;;;;;;4.37;3.97;;;36.40;40.40;;;;;;5825890;24;20458;-83
2023/09/08 13:03:28;;;;;;;4.60;4.20;;;36.90;39.80;;;;;;6042043;23;20517;-85
2023/09/08 13:06:36;;;;;;;4.00;3.70;;;36.90;39.90;;;;;;6013643;23;20455;-82
2023/09/08 13:10:01;;;;;;;4.40;4.10;;;36.90;39.90;;;;;;6039674;23;20418;-84
2023/09/08 13:13:10;;;;;;;4.30;3.90;;;36.60;40.60;;;;;;6023201;23;20435;-84
2023/09/08 13:16:34;;;;;;;4.30;4.00;;;36.90;40.10;;;;;;5989477;23;20401;-83
2023/09/08 13:24:13;;;;;;;5.07;4.33;;;36.30;40.40;;;;;;6076012;23;20419;-84
2023/09/08 13:40:21;;;;;;;4.30;3.90;;;35.70;41.40;;;;;;6025010;23;20408;-83
2023/09/08 13:51:48;;;;;;;3.93;3.63;;;35.80;41.10;;;;;;5821344;24;20467;-83
2023/09/08 13:55:26;;;;;;;;;;;;;;;;;;;;;
2023/09/08 14:03:07;;;;;;;5.77;3.70;;;36.70;40.30;;;;;;5860320;24;20419;-83
2023/09/08 14:06:26;;;;;;;4.63;4.23;;;36.20;40.40;;;;;;5817962;24;20398;-84
2023/09/08 14:14:34;;;;;;;5.07;4.50;;;35.50;41.70;;;;;;5864615;24;21031;-86
2023/09/08 14:28:40;;;;;;;5.10;3.73;;;35.30;41.60;;;;;;5663699;25;20534;-83
2023/09/08 14:31:49;;;;;;;4.50;4.17;;;35.20;42.00;;;;;;5681620;25;20443;-84
2023/09/08 14:34:36;;;;;;;4.27;3.97;;;35.40;41.80;;;;;;5683163;25;20457;-84
2023/09/08 14:37:36;;;;;;;;;;;;;;;;;;;;;
2023/09/08 14:44:05;;;;;;;4.50;4.20;;;34.80;42.90;;;;;;5683922;25;20414;-83
2023/09/08 14:46:31;;;;;;;4.70;4.37;;;34.90;42.70;;;;;;5746345;24;20450;-82
2023/09/08 14:49:30;;;;;;;4.50;4.20;;;34.60;43.20;;;;;;5847287;24;20427;-83
2023/09/08 14:52:54;;;;;;;4.37;4.03;;;34.60;43.00;;;;;;5916925;24;20440;-84
2023/09/08 15:16:46;;;;;;;;;;;;;;;;;;;;;
2023/09/08 15:20:19;;;;;;;4.73;4.33;;;34.40;43.20;;;;;;5670906;25;20515;-81
2023/09/08 15:29:23;;;;;;;;;;;;;;;;;;;;;
2023/09/08 15:32:52;;;;;;;4.97;4.67;;;33.90;44.30;;;;;;6064205;23;20550;-84
2023/09/08 15:36:24;;;;;;;5.53;5.03;;;34.00;44.00;;;;;;6118452;23;20422;-85
2023/09/08 15:39:33;;;;;;;4.97;4.60;;;33.90;44.30;;;;;;5977911;23;20464;-84
2023/09/08 15:43:18;;;;;;;;;;;;;;;;;;;;;
2023/09/08 15:46:37;;;;;;;4.87;4.47;;;33.90;44.70;;;;;;6036615;23;20413;-83
2023/09/08 15:49:49;;;;;;;6.37;4.20;;;33.70;45.10;;;;;;5978765;24;20759;-83
2023/09/08 16:03:48;;;;;;;4.80;4.23;;;33.60;45.30;;;;;;5905700;24;20381;-82
2023/09/08 16:07:06;;;;;;;5.10;4.70;;;33.50;45.40;;;;;;5904338;24;20452;-81
2023/09/08 16:27:28;;;;;;;4.87;4.47;;;33.20;46.30;;;;;;6075368;23;20559;-86
2023/09/08 16:39:09;;;;;;;;;;;;;;;;;;;;;
2023/09/08 16:46:04;;;;;;;5.40;4.90;;;32.70;47.90;;;;;;5871795;24;20434;-82
2023/09/08 16:49:21;;;;;;;5.33;4.67;;;32.70;48.20;;;;;;5851486;24;20432;-84
2023/09/08 17:02:58;;;;;;;5.60;5.10;;;32.00;51.70;;;;;;5929072;24;20648;-82
2023/09/08 17:05:53;;;;;;;5.10;4.23;;;31.90;52.40;;;;;;6001449;23;20396;-84
2023/09/08 17:09:34;;;;;;;;;;;;;;;;;;;;;
2023/09/08 17:12:47;;;;;;;5.00;4.60;;;31.90;52.50;;;;;;5922021;24;20437;-83
2023/09/08 17:16:42;;;;;;;5.00;4.60;;;31.70;53.00;;;;;;5935754;23;20408;-83
2023/09/08 17:20:05;;;;;;;6.53;5.60;;;31.70;53.50;;;;;;6098259;23;20954;-83
2023/09/08 17:23:25;;;;;;;5.77;5.27;;;31.80;53.70;;;;;;6074897;23;20415;-84
2023/09/08 17:26:54;;;;;;;5.50;5.00;;;31.60;54.10;;;;;;6027590;23;20418;-85
2023/09/08 17:30:33;;;;;;;4.90;4.50;;;31.60;54.40;;;;;;5951410;24;20467;-85
2023/09/08 17:37:28;;;;;;;6.10;5.57;;;31.50;55.00;;;;;;5868355;24;20561;-83
2023/09/08 17:40:57;;;;;;;;;;;;;;;;;;;;;
2023/09/08 17:43:46;;;;;;;5.20;4.80;;;31.50;55.10;;;;;;5870336;24;20446;-83
2023/09/08 17:47:46;;;;;;;;;;;;;;;;;;;;;
2023/09/08 17:51:20;;;;;;;;;;;;;;;;;;;;;
2023/09/08 17:55:22;;;;;;;;;;;;;;;;;;;;;
2023/09/08 18:02:44;;;;;;;6.13;5.63;;;31.00;56.10;;;;;;5791092;24;20424;-81
2023/09/08 18:09:56;;;;;;;6.57;5.53;;;30.90;56.70;;;;;;5905303;24;20393;-82
2023/09/08 18:17:32;;;;;;;;;;;;;;;;;;;;;
2023/09/08 18:27:55;;;;;;;6.40;5.53;;;30.60;58.40;;;;;;5945432;24;20539;-82
2023/09/08 18:31:31;;;;;;;6.00;5.50;;;30.60;58.20;;;;;;5791535;24;20418;-83
2023/09/08 18:35:24;;;;;;;5.87;5.47;;;30.50;58.60;;;;;;5729416;25;20907;-84
2023/09/08 18:48:21;;;;;;;6.73;6.00;;;30.20;60.10;;;;;;5843061;24;20479;-83
2023/09/08 18:51:17;;;;;;;7.40;6.70;;;30.20;60.40;;;;;;5840109;24;20437;-84
2023/09/08 19:06:35;;;;;;;7.17;6.47;;;29.80;61.90;;;;;;5714586;24;20407;-85
2023/09/08 19:13:34;;;;;;;6.93;6.30;;;29.80;62.10;;;;;;5824522;24;20467;-83
2023/09/08 19:16:59;;;;;;;8.07;6.40;;;29.70;62.00;;;;;;5901687;24;20442;-83
2023/09/08 19:20:35;;;;;;;7.10;6.50;;;29.70;62.10;;;;;;5841501;24;20447;-83
2023/09/08 19:28:38;;;;;;;7.03;6.37;;;29.30;63.60;;;;;;5908249;24;20537;-84
2023/09/08 19:32:09;;;;;;;9.27;7.27;;;29.20;64.30;;;;;;5838174;24;20449;-83
2023/09/08 19:35:03;;;;;;;6.97;6.40;;;29.20;64.60;;;;;;5957802;24;20395;-83
2023/09/08 19:37:50;;;;;;;7.20;6.47;;;29.20;64.90;;;;;;5956701;24;20673;-84
2023/09/08 19:40:43;;;;;;;9.00;6.57;;;29.20;64.60;;;;;;5963719;24;20409;-85
2023/09/08 19:43:11;;;;;;;8.47;7.70;;;29.10;64.80;;;;;;5966996;23;20435;-80
2023/09/08 19:45:46;;;;;;;6.90;6.30;;;29.10;64.80;;;;;;5992256;23;20405;-81
2023/09/08 19:48:22;;;;;;;9.10;7.73;;;29.10;65.10;;;;;;6080282;23;20441;-82
2023/09/08 19:51:16;;;;;;;7.33;6.63;;;29.10;65.50;;;;;;6082105;23;20907;-82
2023/09/08 19:54:03;;;;;;;7.33;6.63;;;29.10;65.70;;;;;;6075278;23;20416;-82
2023/09/08 19:56:53;;;;;;;7.50;6.80;;;29.10;65.20;;;;;;6063252;23;20401;-82
2023/09/08 19:59:40;;;;;;;7.87;6.80;;;29.00;65.40;;;;;;6087934;23;20484;-82
2023/09/08 20:02:36;;;;;;;12.30;11.13;;;29.00;66.10;;;;;;6085780;23;20511;-82
2023/09/08 20:05:11;;;;;;;7.83;7.17;;;28.80;66.30;;;;;;6075941;23;20409;-82
2023/09/08 20:07:43;;;;;;;7.53;6.93;;;28.80;66.70;;;;;;6076624;23;20549;-82
2023/09/08 20:10:23;;;;;;;9.03;7.77;;;28.60;67.20;;;;;;6083724;23;20416;-83
2023/09/08 20:13:05;;;;;;;8.83;7.87;;;28.80;67.70;;;;;;6079858;23;20437;-82
2023/09/08 20:15:50;;;;;;;8.07;7.37;;;28.70;67.80;;;;;;6079478;23;20401;-82
2023/09/08 20:18:46;;;;;;;8.00;7.30;;;28.70;68.00;;;;;;6077460;23;20410;-82
2023/09/08 20:21:28;;;;;;;8.50;7.60;;;28.60;67.40;;;;;;6078331;23;20444;-82
2023/09/08 20:24:06;;;;;;;8.50;7.90;;;28.60;68.10;;;;;;6080656;23;20424;-81
2023/09/08 20:26:44;;;;;;;8.87;6.90;;;28.40;69.20;;;;;;6081917;23;20413;-81
2023/09/08 20:29:55;;;;;;;7.87;7.20;;;28.20;70.10;;;;;;6081820;23;20428;-82
2023/09/08 20:32:25;;;;;;;8.37;7.57;;;28.10;70.60;;;;;;6085128;23;20441;-83
2023/09/08 20:35:22;;;;;;;9.63;8.70;;;28.00;71.10;;;;;;6087161;23;20437;-83
2023/09/08 20:42:11;;;;;;;8.23;7.53;;;27.70;73.80;;;;;;6019671;23;20492;-84
2023/09/08 20:44:57;;;;;;;8.97;8.20;;;27.90;75.40;;;;;;6085653;23;20405;-84
2023/09/08 20:48:13;;;;;;;8.70;7.90;;;27.70;75.30;;;;;;6084148;23;20449;-83
2023/09/08 20:51:38;;;;;;;8.60;7.80;;;27.70;75.90;;;;;;6015986;23;20568;-84
2023/09/08 20:54:44;;;;;;;7.53;6.93;;;27.80;75.50;;;;;;5973225;23;20405;-83
2023/09/08 20:57:56;;;;;;;8.00;7.30;;;27.60;75.80;;;;;;6026907;23;20417;-85
2023/09/08 21:08:49;;;;;;;8.00;7.30;;;27.40;75.70;;;;;;6089777;23;20456;-83
2023/09/08 21:12:12;;;;;;;7.43;6.83;;;27.30;75.60;;;;;;6075293;23;20441;-84
2023/09/08 21:15:22;;;;;;;8.00;7.30;;;27.20;76.50;;;;;;6074094;23;20420;-82
2023/09/08 21:22:42;;;;;;;;;;;;;;;;;;;;;
2023/09/08 21:26:16;;;;;;;;;;;;;;;;;;;;;
2023/09/08 21:29:36;;;;;;;8.73;7.83;;;26.60;82.10;;;;;;5954374;24;20481;-84
2023/09/08 21:33:10;;;;;;;;;;;;;;;;;;;;;
2023/09/08 21:40:35;;;;;;;;;;;;;;;;;;;;;
2023/09/08 21:51:58;;;;;;;7.40;6.70;;;26.30;85.40;;;;;;5787025;24;20417;-83
2023/09/08 21:55:12;;;;;;;7.70;6.47;;;26.40;85.00;;;;;;5725612;24;20403;-81
2023/09/08 21:58:42;;;;;;;8.20;7.50;;;26.40;84.80;;;;;;5751410;24;20430;-85
2023/09/08 22:02:13;;;;;;;;;;;;;;;;;;;;;
2023/09/08 22:08:56;;;;;;;7.67;7.03;;;26.20;83.70;;;;;;5902780;24;20509;-83
2023/09/08 22:11:33;;;;;;;7.00;6.40;;;26.10;84.40;;;;;;5902648;24;20505;-84
2023/09/08 22:23:04;;;;;;;;;;;;;;;;;;;;;
2023/09/08 22:38:32;;;;;;;;;;;;;;;;;;;;;
2023/09/08 22:50:00;;;;;;;6.87;6.37;;;25.60;86.80;;;;;;5934341;24;20509;-82
2023/09/08 22:53:29;;;;;;;7.77;7.10;;;25.70;86.10;;;;;;6073484;23;20456;-83
2023/09/08 23:04:49;;;;;;;6.73;6.13;;;25.40;86.70;;;;;;6077166;23;20420;-84
2023/09/08 23:13:33;;;;;;;7.73;6.90;;;25.00;89.00;;;;;;6061132;23;20590;-84
2023/09/08 23:17:08;;;;;;;7.03;6.33;;;24.90;89.60;;;;;;6074269;23;20377;-85
2023/09/08 23:20:05;;;;;;;6.53;5.70;;;24.90;89.30;;;;;;6054860;23;20422;-85
2023/09/08 23:22:59;;;;;;;6.67;6.07;;;25.00;89.00;;;;;;6042949;23;20807;-85
2023/09/08 23:28:50;;;;;;;7.13;6.47;;;25.00;87.70;;;;;;6033757;23;20510;-85
2023/09/08 23:32:14;;;;;;;6.60;6.10;;;25.00;87.60;;;;;;5918237;24;20464;-83
2023/09/08 23:35:10;;;;;;;6.80;6.20;;;24.90;86.90;;;;;;5926883;24;20485;-85
2023/09/08 23:38:52;;;;;;;7.13;5.93;;;24.90;86.60;;;;;;5923388;24;20414;-84
2023/09/08 23:42:08;;;;;;;7.03;6.43;;;25.00;86.20;;;;;;5809515;24;20480;-84
2023/09/08 23:45:04;;;;;;;7.37;6.67;;;24.90;86.70;;;;;;5882417;24;20425;-87
2023/09/08 23:48:34;;;;;;;7.00;6.40;;;24.90;87.60;;;;;;5923104;24;20460;-85
2023/09/08 23:53:59;;;;;;;8.00;6.43;;;24.60;88.20;;;;;;6025774;23;20440;-85
2023/09/08 23:56:43;;;;;;;7.37;6.67;;;24.60;88.10;;;;;;6031559;23;20490;-85
2023/09/08 23:59:41;;;;;;;7.70;6.97;;;24.70;89.00;;;;;;6034585;23;20413;-84
